Time;durP1;ratioP1;P1;durP2;ratioP2;P2;SDS_P1;SDS_P2;PMS_P1;PMS_P2;Temp;Humidity;BMP_temperature;BMP_pressure;BME280_temperature;BME280_humidity;BME280_pressure;Samples;Min_cycle;Max_cycle;Signal;HPM_P1;HPM_P2
2022/08/30 04:00:29;;;;;;;9.73;7.70;;;17.50;99.90;;;;;;5961692;23;21772;-76
2022/08/30 04:02:56;;;;;;;11.90;8.47;;;17.50;99.90;;;;;;4967433;28;20441;-76
2022/08/30 04:05:22;;;;;;;9.90;7.77;;;17.40;99.90;;;;;;4967508;28;20461;-76
2022/08/30 04:07:49;;;;;;;8.80;7.90;;;17.40;99.90;;;;;;4967819;28;21031;-76
2022/08/30 04:10:16;;;;;;;10.40;7.20;;;17.40;99.90;;;;;;4968219;28;20461;-76
2022/08/30 04:12:43;;;;;;;10.30;7.40;;;17.40;99.90;;;;;;4967980;28;20469;-76
2022/08/30 04:15:11;;;;;;;10.80;7.87;;;17.40;99.90;;;;;;4967154;28;20833;-75
2022/08/30 04:17:39;;;;;;;12.50;7.47;;;17.40;99.90;;;;;;4968159;28;20491;-76
2022/08/30 04:20:07;;;;;;;10.13;7.37;;;17.40;99.90;;;;;;4967627;28;20980;-76
2022/08/30 04:22:35;;;;;;;10.00;7.47;;;17.40;99.90;;;;;;4967637;28;20476;-75
2022/08/30 04:25:02;;;;;;;11.50;7.30;;;17.40;99.90;;;;;;4966976;28;20832;-75
2022/08/30 04:27:29;;;;;;;13.23;8.20;;;17.30;99.90;;;;;;4967634;28;21011;-75
2022/08/30 04:29:56;;;;;;;9.13;7.30;;;17.30;99.90;;;;;;4967900;28;20460;-76
2022/08/30 04:32:22;;;;;;;16.37;7.50;;;17.30;99.90;;;;;;4966791;28;20484;-75
2022/08/30 04:34:55;;;;;;;13.60;8.13;;;17.30;99.90;;;;;;4966678;28;20460;-75
2022/08/30 04:37:22;;;;;;;10.67;8.03;;;17.30;99.90;;;;;;4967259;28;20445;-75
2022/08/30 04:39:49;;;;;;;10.83;7.33;;;17.20;99.90;;;;;;4967549;28;20467;-75
2022/08/30 04:42:17;;;;;;;11.63;8.13;;;17.20;99.90;;;;;;4967329;28;20489;-76
2022/08/30 04:44:43;;;;;;;11.43;8.13;;;17.10;99.90;;;;;;4966599;28;20469;-76
2022/08/30 04:47:10;;;;;;;9.60;7.80;;;17.10;99.90;;;;;;4968890;28;21020;-78
2022/08/30 04:49:37;;;;;;;10.60;7.27;;;17.10;99.90;;;;;;4970662;28;20469;-79
2022/08/30 04:52:07;;;;;;;13.40;7.93;;;17.10;99.90;;;;;;4968711;28;20476;-79
2022/08/30 04:54:34;;;;;;;9.30;8.10;;;17.10;99.90;;;;;;4968072;28;20826;-79
2022/08/30 04:57:01;;;;;;;10.23;7.33;;;17.10;99.90;;;;;;4968085;28;20881;-79
2022/08/30 04:59:28;;;;;;;8.40;6.90;;;17.00;99.90;;;;;;4968492;28;20463;-79
2022/08/30 05:01:55;;;;;;;9.33;7.70;;;17.00;99.90;;;;;;4969246;28;20543;-79
2022/08/30 05:04:22;;;;;;;10.17;7.63;;;17.00;99.90;;;;;;4969044;28;20827;-79
2022/08/30 05:06:49;;;;;;;11.77;8.37;;;17.00;99.90;;;;;;4969717;28;20500;-79
2022/08/30 05:09:17;;;;;;;12.30;8.17;;;17.00;99.90;;;;;;4970188;28;20460;-79
2022/08/30 05:11:45;;;;;;;13.60;9.00;;;17.00;99.90;;;;;;4969460;28;20822;-79
2022/08/30 05:14:12;;;;;;;9.30;7.53;;;17.00;99.90;;;;;;4968986;28;20460;-79
2022/08/30 05:16:40;;;;;;;8.50;7.37;;;17.00;99.90;;;;;;4969663;28;20465;-79
2022/08/30 05:19:07;;;;;;;10.67;7.77;;;17.00;99.90;;;;;;4969076;28;20774;-80
2022/08/30 05:21:34;;;;;;;14.40;7.53;;;17.00;99.90;;;;;;4969868;28;20888;-79
2022/08/30 05:24:01;;;;;;;9.80;7.77;;;17.00;99.90;;;;;;4970203;28;20555;-79
2022/08/30 05:26:32;;;;;;;10.30;7.73;;;17.00;99.90;;;;;;4969802;28;20814;-79
2022/08/30 05:28:59;;;;;;;10.47;7.57;;;17.00;99.90;;;;;;4969112;28;20465;-79
2022/08/30 05:31:28;;;;;;;9.87;7.27;;;17.00;99.90;;;;;;4969624;28;20476;-79
2022/08/30 05:33:55;;;;;;;13.43;7.87;;;17.00;99.90;;;;;;4969561;28;20465;-79
2022/08/30 05:36:27;;;;;;;11.30;7.90;;;17.00;99.90;;;;;;4969447;28;20456;-79
2022/08/30 05:38:55;;;;;;;10.43;7.47;;;17.00;99.90;;;;;;4969198;28;20631;-80
2022/08/30 05:41:24;;;;;;;10.73;7.93;;;17.00;99.90;;;;;;4968996;28;21005;-79
2022/08/30 05:43:54;;;;;;;12.30;8.47;;;17.00;99.90;;;;;;4969272;28;20942;-79
2022/08/30 05:46:21;;;;;;;10.40;7.60;;;17.00;99.90;;;;;;4969943;28;20452;-79
2022/08/30 05:48:48;;;;;;;9.80;7.77;;;17.00;99.90;;;;;;4969191;28;20502;-79
2022/08/30 05:51:17;;;;;;;11.33;7.83;;;17.10;99.90;;;;;;4969196;28;20484;-79
2022/08/30 05:53:45;;;;;;;14.60;7.20;;;17.10;99.90;;;;;;4969505;28;20528;-79
2022/08/30 05:56:14;;;;;;;9.37;7.10;;;17.10;99.90;;;;;;4968993;28;21188;-79
2022/08/30 05:58:41;;;;;;;11.10;7.30;;;17.10;99.90;;;;;;4969445;28;20492;-79
2022/08/30 06:01:19;;;;;;;11.90;7.33;;;17.20;99.90;;;;;;4969811;28;20492;-79
2022/08/30 06:03:46;;;;;;;10.50;7.07;;;17.20;99.90;;;;;;4969579;28;20796;-79
2022/08/30 06:06:12;;;;;;;9.10;7.40;;;17.20;99.90;;;;;;4969059;28;20463;-79
2022/08/30 06:08:39;;;;;;;11.40;8.10;;;17.20;99.90;;;;;;4969164;28;20488;-79
2022/08/30 06:11:06;;;;;;;13.93;7.90;;;17.30;99.90;;;;;;4969529;28;20853;-79
2022/08/30 06:13:34;;;;;;;15.43;8.33;;;17.40;99.90;;;;;;4969127;28;20819;-79
2022/08/30 06:16:01;;;;;;;14.93;8.03;;;17.40;99.90;;;;;;4969301;28;20500;-79
2022/08/30 06:18:30;;;;;;;13.23;8.87;;;17.40;99.90;;;;;;4969750;28;20460;-79
2022/08/30 06:20:57;;;;;;;11.90;8.53;;;17.40;99.90;;;;;;4968808;28;20492;-80
2022/08/30 06:23:24;;;;;;;17.27;8.50;;;17.40;99.90;;;;;;4970259;28;20837;-79
2022/08/30 06:25:51;;;;;;;11.27;8.20;;;17.50;99.90;;;;;;4970903;28;21058;-79
2022/08/30 06:28:18;;;;;;;8.93;7.90;;;17.50;99.90;;;;;;4974241;28;20506;-79
2022/08/30 06:30:44;;;;;;;11.27;7.60;;;17.50;99.90;;;;;;4980262;28;20482;-79
2022/08/30 06:33:11;;;;;;;11.87;7.60;;;17.50;99.90;;;;;;4980910;28;20456;-79
2022/08/30 06:35:40;;;;;;;11.87;7.80;;;17.60;99.90;;;;;;4982656;28;20483;-79
2022/08/30 06:38:06;;;;;;;13.03;7.10;;;17.60;99.90;;;;;;4983035;28;20459;-79
2022/08/30 06:40:33;;;;;;;9.40;7.50;;;17.70;99.90;;;;;;4979189;28;21008;-80
2022/08/30 06:43:00;;;;;;;7.93;7.13;;;17.70;99.90;;;;;;4972430;28;20464;-79
2022/08/30 06:45:27;;;;;;;11.73;7.37;;;17.70;99.90;;;;;;4971566;28;20907;-79
2022/08/30 06:47:54;;;;;;;11.43;7.50;;;17.80;99.90;;;;;;4971654;28;20492;-79
2022/08/30 06:50:21;;;;;;;11.53;8.13;;;17.80;99.90;;;;;;4971223;28;20460;-79
2022/08/30 06:52:49;;;;;;;11.63;8.70;;;17.80;99.90;;;;;;4971538;28;20452;-79
2022/08/30 06:55:17;;;;;;;10.77;8.27;;;17.90;99.90;;;;;;4971035;28;20464;-79
2022/08/30 06:57:45;;;;;;;9.80;6.93;;;17.90;99.90;;;;;;4971317;28;20983;-79
2022/08/30 07:00:15;;;;;;;9.50;6.50;;;18.00;99.90;;;;;;4971321;28;20473;-79
2022/08/30 07:02:42;;;;;;;9.57;7.27;;;18.10;99.90;;;;;;4971519;28;20463;-79
2022/08/30 07:05:11;;;;;;;10.17;6.90;;;18.10;99.90;;;;;;4971008;28;20460;-80
2022/08/30 07:07:38;;;;;;;9.83;7.00;;;18.20;99.90;;;;;;4971700;28;20858;-79
2022/08/30 07:10:08;;;;;;;11.77;6.57;;;18.30;99.90;;;;;;4971731;28;20519;-80
2022/08/30 07:12:35;;;;;;;10.80;6.40;;;18.40;99.90;;;;;;4971196;28;20863;-79
2022/08/30 07:15:05;;;;;;;8.73;6.40;;;18.40;99.90;;;;;;4971336;28;20488;-79
2022/08/30 07:20:17;;;;;;;11.00;6.30;;;18.60;99.90;;;;;;4971217;28;20428;-79
2022/08/30 07:22:44;;;;;;;8.37;5.73;;;18.70;99.90;;;;;;4971538;28;20475;-79
2022/08/30 07:25:14;;;;;;;10.70;6.17;;;18.80;99.90;;;;;;4970940;28;20471;-79
2022/08/30 07:27:41;;;;;;;9.27;6.77;;;18.90;99.90;;;;;;4970912;28;21091;-80
2022/08/30 07:30:09;;;;;;;6.23;5.63;;;19.00;99.90;;;;;;4971833;28;20864;-79
2022/08/30 07:32:37;;;;;;;7.37;6.37;;;19.10;99.90;;;;;;4971648;28;20480;-79
2022/08/30 07:35:04;;;;;;;9.17;6.27;;;19.20;99.90;;;;;;4971174;28;20507;-80
2022/08/30 07:37:31;;;;;;;7.57;5.40;;;19.20;99.90;;;;;;4970834;28;20548;-80
2022/08/30 07:39:58;;;;;;;8.97;5.57;;;19.40;99.90;;;;;;4971382;28;20821;-80
2022/08/30 07:42:26;;;;;;;7.17;5.40;;;19.50;99.90;;;;;;4971622;28;20855;-80
2022/08/30 07:44:53;;;;;;;11.63;6.63;;;19.70;99.90;;;;;;4971349;28;20460;-80
2022/08/30 07:47:19;;;;;;;9.20;6.70;;;19.80;99.90;;;;;;4971024;28;20460;-80
2022/08/30 07:49:46;;;;;;;11.30;6.67;;;20.00;99.90;;;;;;4971927;28;20467;-80
2022/08/30 07:52:13;;;;;;;9.03;5.40;;;20.10;99.90;;;;;;4971499;28;20476;-80
2022/08/30 07:54:41;;;;;;;9.63;6.00;;;20.30;99.90;;;;;;4971355;28;20524;-80
2022/08/30 07:57:08;;;;;;;7.80;5.67;;;20.40;99.90;;;;;;4972057;28;20730;-80
2022/08/30 07:59:36;;;;;;;8.03;5.40;;;20.50;99.90;;;;;;4972285;28;20461;-79
2022/08/30 08:02:04;;;;;;;12.13;5.83;;;20.70;99.90;;;;;;4971528;28;20503;-80
2022/08/30 08:04:33;;;;;;;9.20;5.33;;;21.00;99.90;;;;;;4971634;28;20496;-80
2022/08/30 08:07:00;;;;;;;10.57;5.60;;;21.10;99.90;;;;;;4972593;28;20469;-80
2022/08/30 08:09:26;;;;;;;8.17;5.87;;;21.20;99.90;;;;;;4971499;28;20495;-80
2022/08/30 08:11:56;;;;;;;10.90;5.43;;;21.20;99.90;;;;;;4972749;28;20490;-80
2022/08/30 08:14:23;;;;;;;7.63;5.33;;;21.40;99.90;;;;;;4971703;28;20972;-80
2022/08/30 08:16:52;;;;;;;7.50;5.80;;;21.40;99.90;;;;;;4972447;28;20483;-80
2022/08/30 08:19:22;;;;;;;8.80;5.30;;;21.50;99.90;;;;;;4972889;28;20516;-80
2022/08/30 08:21:49;;;;;;;7.10;5.60;;;21.60;99.90;;;;;;4972167;28;20485;-80
2022/08/30 08:24:16;;;;;;;6.47;5.63;;;21.70;99.90;;;;;;4972243;28;20464;-80
2022/08/30 08:26:43;;;;;;;13.77;5.93;;;21.80;99.90;;;;;;4972830;28;20582;-80
2022/08/30 08:29:10;;;;;;;9.10;5.77;;;22.00;99.90;;;;;;4973207;28;20507;-80
2022/08/30 08:31:37;;;;;;;7.70;5.77;;;22.20;99.90;;;;;;4973459;28;20480;-81
2022/08/30 08:34:06;;;;;;;7.67;6.17;;;22.30;99.90;;;;;;4973380;28;20456;-81
2022/08/30 08:36:33;;;;;;;7.00;5.83;;;22.80;99.90;;;;;;4975430;28;20460;-79
2022/08/30 08:39:01;;;;;;;5.93;5.33;;;23.50;99.90;;;;;;4975504;28;20461;-80
2022/08/30 08:41:40;;;;;;;14.50;6.80;;;23.50;99.90;;;;;;4973877;28;20479;-80
2022/08/30 08:44:14;;;;;;;6.60;5.23;;;23.70;99.90;;;;;;4973313;28;20449;-80
2022/08/30 08:46:49;;;;;;;7.33;5.17;;;23.80;99.90;;;;;;4974080;28;20449;-80
2022/08/30 08:49:17;;;;;;;5.97;4.93;;;24.10;99.90;;;;;;4973964;28;20499;-80
2022/08/30 08:54:34;;;;;;;8.40;5.30;;;24.80;99.90;;;;;;4973898;28;20459;-80
2022/08/30 08:57:02;;;;;;;7.43;5.13;;;25.50;99.90;;;;;;4979279;28;20531;-80
2022/08/30 08:59:28;;;;;;;11.53;5.37;;;25.70;99.90;;;;;;4982477;28;20880;-80
2022/08/30 09:01:58;;;;;;;4.93;4.43;;;25.50;99.90;;;;;;4975158;28;20997;-81
2022/08/30 09:04:33;;;;;;;6.00;5.17;;;25.90;99.90;;;;;;4971914;28;20467;-81
2022/08/30 09:07:04;;;;;;;6.30;5.20;;;26.70;99.90;;;;;;4971692;28;20452;-81
2022/08/30 09:09:34;;;;;;;5.37;4.40;;;27.20;99.90;;;;;;4971915;28;20491;-81
2022/08/30 09:12:01;;;;;;;6.60;5.30;;;27.30;99.90;;;;;;4971189;28;20491;-81
2022/08/30 09:14:33;;;;;;;6.20;5.10;;;27.30;99.90;;;;;;4970474;28;20461;-81
2022/08/30 09:17:02;;;;;;;5.77;4.60;;;27.60;99.90;;;;;;4971115;28;20478;-81
2022/08/30 09:19:42;;;;;;;5.20;4.13;;;27.70;99.90;;;;;;4970085;28;20463;-80
2022/08/30 09:22:19;;;;;;;5.30;4.50;;;27.60;99.90;;;;;;4969906;28;20488;-81
2022/08/30 09:24:48;;;;;;;6.27;4.87;;;27.50;99.90;;;;;;4969479;28;20464;-81
2022/08/30 09:27:22;;;;;;;11.47;5.07;;;27.70;99.90;;;;;;4969400;28;20457;-81
2022/08/30 09:30:14;;;;;;;7.20;4.67;;;27.90;99.90;;;;;;4969939;28;20484;-81
2022/08/30 09:32:44;;;;;;;5.50;4.77;;;28.00;99.90;;;;;;4964112;28;20929;-81
2022/08/30 09:35:19;;;;;;;5.20;4.23;;;28.00;99.90;;;;;;4968800;28;20453;-81
2022/08/30 09:37:51;;;;;;;5.70;4.53;;;28.30;99.90;;;;;;4969293;28;20452;-81
2022/08/30 09:40:25;;;;;;;9.53;4.67;;;28.60;99.90;;;;;;4969563;28;21249;-81
2022/08/30 09:43:04;;;;;;;4.70;4.20;;;29.30;99.90;;;;;;4970040;28;20463;-81
2022/08/30 09:45:34;;;;;;;5.20;4.37;;;29.30;99.90;;;;;;4969078;28;20441;-81
2022/08/30 09:48:20;;;;;;;5.20;4.50;;;29.50;99.90;;;;;;4970009;28;20460;-81
2022/08/30 09:50:54;;;;;;;5.80;4.90;;;29.80;99.90;;;;;;4969836;28;20571;-81
2022/08/30 09:53:25;;;;;;;7.00;4.60;;;29.80;99.90;;;;;;4969930;28;20456;-81
2022/08/30 09:56:06;;;;;;;10.30;4.50;;;30.70;99.90;;;;;;4969578;28;20437;-81
2022/08/30 09:58:45;;;;;;;6.27;4.60;;;31.40;99.90;;;;;;4970133;28;20443;-81
2022/08/30 10:01:15;;;;;;;4.37;3.87;;;31.50;99.90;;;;;;4971044;28;20534;-82
2022/08/30 10:03:48;;;;;;;6.03;4.80;;;31.80;99.90;;;;;;4973078;28;20460;-82
2022/08/30 10:06:27;;;;;;;5.00;4.00;;;32.30;99.90;;;;;;4972911;28;20456;-82
2022/08/30 10:09:03;;;;;;;4.93;4.20;;;32.50;99.90;;;;;;4973731;28;20535;-82
2022/08/30 10:11:39;;;;;;;6.80;4.00;;;32.20;99.90;;;;;;4974275;28;20787;-82
2022/08/30 10:14:40;;;;;;;5.23;4.13;;;31.80;99.90;;;;;;4973105;28;20444;-82
2022/08/30 10:17:15;;;;;;;5.33;4.27;;;31.80;99.90;;;;;;4966331;28;20466;-82
2022/08/30 10:19:56;;;;;;;4.50;4.10;;;31.80;99.90;;;;;;4973133;28;20479;-82
2022/08/30 10:22:30;;;;;;;7.70;4.30;;;32.50;99.90;;;;;;4972621;28;21070;-82
2022/08/30 10:25:05;;;;;;;6.40;4.57;;;32.70;99.90;;;;;;4973152;28;20436;-82
2022/08/30 10:27:40;;;;;;;4.33;3.93;;;32.80;99.90;;;;;;4973258;28;20440;-82
2022/08/30 10:30:10;;;;;;;4.80;3.97;;;33.10;99.90;;;;;;4973772;28;20705;-82
2022/08/30 10:32:42;;;;;;;5.60;4.10;;;32.90;99.90;;;;;;4974083;28;20498;-82
2022/08/30 10:35:13;;;;;;;7.77;3.97;;;32.60;99.90;;;;;;4972242;28;20453;-82
2022/08/30 10:37:46;;;;;;;7.27;3.80;;;32.50;99.90;;;;;;4973064;28;20817;-82
2022/08/30 10:43:08;;;;;;;4.30;3.90;;;32.40;99.90;;;;;;4973044;28;20433;-83
2022/08/30 10:45:40;;;;;;;4.60;4.20;;;32.40;99.90;;;;;;4972964;28;20461;-83
2022/08/30 10:48:13;;;;;;;5.13;4.10;;;32.70;99.90;;;;;;4975336;28;20869;-83
2022/08/30 10:50:44;;;;;;;8.90;4.53;;;33.00;99.90;;;;;;4973822;28;20484;-82
2022/08/30 10:53:15;;;;;;;5.87;3.90;;;32.90;99.90;;;;;;4973035;28;20455;-82
2022/08/30 10:55:48;;;;;;;6.30;4.90;;;33.20;99.90;;;;;;4972144;28;20496;-83
2022/08/30 10:58:17;;;;;;;3.93;3.63;;;33.90;99.90;;;;;;4971621;28;20455;-82
2022/08/30 11:00:57;;;;;;;6.70;4.57;;;34.20;99.90;;;;;;4971738;28;21087;-82
2022/08/30 11:03:53;;;;;;;6.23;4.30;;;34.10;99.90;;;;;;4972290;28;20540;-83
2022/08/30 11:06:24;;;;;;;4.87;4.47;;;33.70;99.90;;;;;;4970917;28;20457;-82
2022/08/30 11:09:23;;;;;;;9.73;4.17;;;34.60;98.60;;;;;;4971349;28;20502;-83
2022/08/30 11:12:10;;;;;;;4.30;3.90;;;35.20;98.60;;;;;;4971815;28;20576;-82
2022/08/30 11:14:39;;;;;;;4.67;4.23;;;35.30;97.00;;;;;;4970525;28;20455;-83
2022/08/30 11:17:27;;;;;;;4.50;3.83;;;35.40;97.50;;;;;;4971484;28;20471;-83
2022/08/30 11:19:56;;;;;;;4.40;4.00;;;34.90;98.40;;;;;;4971744;28;20452;-83
2022/08/30 11:22:26;;;;;;;5.73;4.20;;;34.80;97.40;;;;;;4971601;28;20520;-83
2022/08/30 11:25:08;;;;;;;5.40;4.30;;;34.50;97.70;;;;;;4971984;28;20472;-83
2022/08/30 11:27:45;;;;;;;5.23;4.73;;;34.20;98.10;;;;;;4972636;28;20449;-83
2022/08/30 11:30:46;;;;;;;6.23;4.40;;;33.90;97.80;;;;;;4971672;28;20485;-82
2022/08/30 11:33:45;;;;;;;7.60;4.63;;;33.60;98.20;;;;;;4964702;28;20667;-83
2022/08/30 11:36:46;;;;;;;8.77;4.70;;;33.50;98.50;;;;;;4971327;28;20459;-83
2022/08/30 11:39:50;;;;;;;6.93;4.30;;;33.40;98.80;;;;;;4970189;28;20471;-82
2022/08/30 11:42:37;;;;;;;7.50;4.60;;;34.20;96.80;;;;;;4970279;28;21035;-83
2022/08/30 11:45:42;;;;;;;14.43;7.50;;;35.50;94.90;;;;;;4971235;28;20456;-82
2022/08/30 11:48:40;;;;;;;8.17;4.87;;;35.30;95.50;;;;;;4976089;28;20463;-82
2022/08/30 11:51:19;;;;;;;6.93;4.37;;;34.70;95.80;;;;;;4974750;28;20483;-82
2022/08/30 11:53:57;;;;;;;12.30;7.13;;;34.70;94.20;;;;;;4974055;28;20449;-82
2022/08/30 11:56:29;;;;;;;12.70;7.73;;;34.60;95.00;;;;;;4974998;28;20453;-82
2022/08/30 11:59:01;;;;;;;10.67;5.50;;;34.30;95.50;;;;;;4975868;28;20442;-82
2022/08/30 12:01:35;;;;;;;7.13;5.17;;;33.90;95.70;;;;;;4976681;28;20500;-82
2022/08/30 12:04:06;;;;;;;23.67;11.60;;;33.50;95.60;;;;;;4984359;28;20551;-82
2022/08/30 12:06:55;;;;;;;18.83;8.30;;;33.30;97.10;;;;;;4987211;28;20444;-82
2022/08/30 12:10:02;;;;;;;4.53;4.13;;;33.10;96.80;;;;;;4975299;28;20491;-82
2022/08/30 12:12:59;;;;;;;15.80;6.30;;;33.20;95.80;;;;;;4976060;28;20476;-82
2022/08/30 12:15:58;;;;;;;7.90;5.60;;;33.10;95.70;;;;;;4879166;29;20461;-82
2022/08/30 12:18:31;;;;;;;6.60;5.50;;;32.80;96.70;;;;;;4975544;28;20511;-82
2022/08/30 12:21:08;;;;;;;4.87;4.27;;;32.80;95.10;;;;;;4976161;28;20539;-82
2022/08/30 12:23:41;;;;;;;5.23;4.33;;;32.90;96.30;;;;;;4976599;28;20925;-82
2022/08/30 12:26:32;;;;;;;25.07;12.23;;;32.60;95.90;;;;;;4977251;28;20472;-82
2022/08/30 12:29:16;;;;;;;19.30;9.73;;;32.30;97.10;;;;;;4977891;28;20487;-82
2022/08/30 12:31:46;;;;;;;9.60;5.13;;;32.10;97.60;;;;;;4977003;28;20481;-82
2022/08/30 12:34:22;;;;;;;11.57;7.63;;;32.00;96.90;;;;;;4976537;28;20975;-82
2022/08/30 12:36:54;;;;;;;6.93;4.57;;;31.90;98.10;;;;;;4977520;28;20455;-82
2022/08/30 12:39:24;;;;;;;5.13;4.60;;;31.80;97.60;;;;;;4975543;28;21008;-82
2022/08/30 12:41:50;;;;;;;8.23;4.87;;;31.70;97.70;;;;;;4977268;28;20487;-82
2022/08/30 12:44:21;;;;;;;8.30;4.97;;;31.60;98.30;;;;;;4976683;28;20467;-81
2022/08/30 12:46:52;;;;;;;5.40;4.90;;;31.50;97.90;;;;;;4976886;28;20511;-82
2022/08/30 12:49:21;;;;;;;7.10;4.37;;;31.40;98.60;;;;;;4976908;28;20927;-82
2022/08/30 12:51:48;;;;;;;11.60;5.20;;;31.60;96.50;;;;;;4977476;28;20535;-82
2022/08/30 12:54:19;;;;;;;6.93;4.73;;;31.80;96.60;;;;;;4978969;28;20467;-82
2022/08/30 12:56:53;;;;;;;6.00;5.03;;;31.80;96.90;;;;;;4982803;28;20551;-82
2022/08/30 12:59:57;;;;;;;6.20;5.50;;;31.60;98.20;;;;;;4990359;28;20469;-82
2022/08/30 13:02:27;;;;;;;5.87;5.30;;;31.40;98.00;;;;;;4994297;28;20519;-80
2022/08/30 13:04:56;;;;;;;5.17;4.30;;;31.30;99.00;;;;;;4992906;28;20520;-80
2022/08/30 13:07:29;;;;;;;5.90;5.30;;;31.20;98.80;;;;;;4991417;28;20456;-81
2022/08/30 13:10:18;;;;;;;4.63;4.23;;;31.00;98.80;;;;;;4992645;28;20484;-80
2022/08/30 13:12:59;;;;;;;7.53;4.80;;;30.90;98.60;;;;;;4974396;28;20452;-80
2022/08/30 13:15:32;;;;;;;5.30;4.80;;;30.80;98.40;;;;;;4974987;28;20460;-81
2022/08/30 13:18:18;;;;;;;5.40;4.90;;;30.70;99.40;;;;;;4975097;28;20464;-81
2022/08/30 13:20:47;;;;;;;5.03;4.33;;;30.70;99.30;;;;;;4974216;28;20488;-80
2022/08/30 13:23:23;;;;;;;5.87;5.10;;;30.70;99.20;;;;;;4974292;28;20453;-80
2022/08/30 13:25:50;;;;;;;5.43;4.80;;;30.50;99.20;;;;;;4973091;28;20794;-80
2022/08/30 13:28:17;;;;;;;7.40;4.57;;;30.40;99.90;;;;;;4974082;28;20466;-81
2022/08/30 13:30:43;;;;;;;6.23;4.97;;;30.40;99.90;;;;;;4974739;28;20500;-80
2022/08/30 13:33:10;;;;;;;9.27;4.93;;;30.30;99.10;;;;;;4974307;28;20559;-80
2022/08/30 13:35:37;;;;;;;8.13;4.90;;;30.20;99.90;;;;;;4973441;28;20547;-80
2022/08/30 13:38:05;;;;;;;7.03;4.93;;;30.20;99.90;;;;;;4974281;28;20466;-80
2022/08/30 13:40:32;;;;;;;47.47;12.10;;;30.10;99.80;;;;;;4974165;28;20483;-80
2022/08/30 13:42:59;;;;;;;14.63;5.77;;;30.10;99.80;;;;;;4974649;28;20561;-80
2022/08/30 13:45:26;;;;;;;6.30;5.20;;;30.10;99.90;;;;;;4973722;28;20464;-80
2022/08/30 13:47:54;;;;;;;13.13;5.47;;;30.10;99.90;;;;;;4974843;28;20464;-80
2022/08/30 13:50:21;;;;;;;6.70;4.87;;;30.10;99.90;;;;;;4974644;28;20528;-80
2022/08/30 13:52:48;;;;;;;6.40;5.43;;;30.00;99.90;;;;;;4974637;28;20464;-80
2022/08/30 13:55:16;;;;;;;10.93;4.87;;;29.90;99.90;;;;;;4974405;28;20465;-80
2022/08/30 13:57:43;;;;;;;8.30;4.67;;;29.90;99.90;;;;;;4974034;28;20919;-80
2022/08/30 14:00:16;;;;;;;7.27;4.70;;;29.90;99.90;;;;;;4974145;28;20457;-80
2022/08/30 14:02:43;;;;;;;8.30;5.00;;;29.90;99.90;;;;;;4973947;28;20433;-82
2022/08/30 14:05:10;;;;;;;8.13;5.20;;;29.80;99.90;;;;;;4973893;28;20449;-80
2022/08/30 14:07:37;;;;;;;8.43;5.30;;;29.80;99.90;;;;;;4974087;28;20460;-81
2022/08/30 14:10:05;;;;;;;6.37;5.17;;;29.90;99.90;;;;;;4973573;28;20500;-80
2022/08/30 14:12:33;;;;;;;7.37;4.77;;;29.90;99.90;;;;;;4973895;28;20575;-80
2022/08/30 14:15:01;;;;;;;7.20;5.30;;;29.90;99.90;;;;;;4974009;28;20456;-80
2022/08/30 14:17:31;;;;;;;6.07;4.97;;;30.00;99.90;;;;;;4973444;28;20530;-80
2022/08/30 14:19:58;;;;;;;11.07;5.40;;;30.00;99.90;;;;;;4973339;28;20460;-80
2022/08/30 14:22:25;;;;;;;6.40;5.37;;;30.10;99.90;;;;;;4973710;28;20488;-80
2022/08/30 14:24:52;;;;;;;5.43;4.93;;;30.00;99.80;;;;;;4973660;28;20536;-80
2022/08/30 14:27:19;;;;;;;8.50;5.30;;;30.00;99.90;;;;;;4973702;28;20471;-80
2022/08/30 14:29:48;;;;;;;8.07;6.43;;;29.90;99.90;;;;;;4973413;28;20507;-80
2022/08/30 14:32:15;;;;;;;7.30;4.67;;;29.90;99.90;;;;;;4973651;28;20867;-80
2022/08/30 14:34:42;;;;;;;8.00;4.90;;;29.90;99.90;;;;;;4973303;28;20464;-80
2022/08/30 14:37:09;;;;;;;8.30;4.57;;;29.80;99.90;;;;;;4974340;28;20464;-80
2022/08/30 14:39:35;;;;;;;5.40;4.10;;;29.80;99.90;;;;;;4973887;28;20460;-80
2022/08/30 14:42:02;;;;;;;9.97;5.20;;;29.70;99.90;;;;;;4973445;28;20483;-80
2022/08/30 14:44:29;;;;;;;6.93;5.93;;;29.60;99.90;;;;;;4972624;28;20555;-80
2022/08/30 14:46:57;;;;;;;6.00;5.20;;;29.60;99.90;;;;;;4973609;28;20460;-80
2022/08/30 14:49:25;;;;;;;8.53;7.63;;;29.50;99.90;;;;;;4976557;28;20460;-80
2022/08/30 14:51:52;;;;;;;8.90;5.50;;;29.60;99.90;;;;;;4976743;28;20488;-81
2022/08/30 14:54:22;;;;;;;5.50;5.00;;;29.70;99.90;;;;;;4977554;28;20455;-80
2022/08/30 14:56:49;;;;;;;10.33;5.37;;;29.80;99.90;;;;;;4978026;28;20556;-80
2022/08/30 14:59:17;;;;;;;5.33;4.80;;;30.00;99.90;;;;;;4981618;28;20464;-80
2022/08/30 15:01:44;;;;;;;7.00;4.50;;;30.10;99.90;;;;;;4979381;28;20555;-81
2022/08/30 15:04:14;;;;;;;6.10;5.10;;;30.30;99.90;;;;;;4978453;28;20453;-81
2022/08/30 15:06:43;;;;;;;8.80;4.50;;;30.40;99.90;;;;;;4978302;28;20547;-81
2022/08/30 15:09:12;;;;;;;8.80;4.77;;;30.50;99.90;;;;;;4977808;28;20457;-81
2022/08/30 15:11:38;;;;;;;7.03;4.87;;;30.50;99.10;;;;;;4978145;28;20591;-81
2022/08/30 15:14:06;;;;;;;6.03;4.50;;;30.60;99.40;;;;;;4978034;28;20896;-81
2022/08/30 15:16:35;;;;;;;6.30;4.60;;;30.60;99.50;;;;;;4977549;28;20478;-81
2022/08/30 15:19:03;;;;;;;6.50;4.93;;;30.60;98.80;;;;;;4978208;28;20547;-81
2022/08/30 15:21:33;;;;;;;6.07;5.23;;;30.60;99.90;;;;;;4977293;28;20579;-80
2022/08/30 15:24:02;;;;;;;5.33;4.80;;;30.70;99.00;;;;;;4977831;28;20445;-81
2022/08/30 15:26:29;;;;;;;5.23;4.20;;;30.70;98.80;;;;;;4977573;28;20471;-81
2022/08/30 15:28:56;;;;;;;7.33;5.07;;;30.70;98.20;;;;;;4976889;28;21411;-81
2022/08/30 15:31:27;;;;;;;5.47;4.30;;;30.80;98.90;;;;;;4977332;28;20500;-81
2022/08/30 15:33:55;;;;;;;6.90;4.63;;;30.80;98.70;;;;;;4977434;28;20449;-81
2022/08/30 15:36:21;;;;;;;8.93;4.93;;;30.90;99.90;;;;;;4977261;28;20461;-81
2022/08/30 15:38:51;;;;;;;4.47;3.80;;;31.10;99.20;;;;;;4977039;28;20457;-81
2022/08/30 15:41:18;;;;;;;5.73;4.20;;;31.20;99.10;;;;;;4977377;28;20504;-81
2022/08/30 15:43:45;;;;;;;6.90;4.27;;;31.30;98.60;;;;;;4977289;28;20465;-81
2022/08/30 15:46:21;;;;;;;4.80;4.30;;;31.40;97.80;;;;;;4976763;28;20572;-81
2022/08/30 15:48:48;;;;;;;10.70;5.17;;;31.50;97.20;;;;;;4976978;28;20448;-80
2022/08/30 15:51:16;;;;;;;9.63;4.30;;;31.50;97.20;;;;;;4977223;28;20501;-81
2022/08/30 15:53:43;;;;;;;6.50;4.70;;;31.40;96.60;;;;;;4977128;28;20968;-81
2022/08/30 15:56:11;;;;;;;8.97;5.00;;;31.40;97.20;;;;;;4977273;28;20469;-81
2022/08/30 15:58:38;;;;;;;5.40;4.90;;;31.50;97.40;;;;;;4976207;28;20461;-80
2022/08/30 16:01:05;;;;;;;5.67;4.00;;;31.50;97.20;;;;;;4977611;28;20491;-82
2022/08/30 16:03:32;;;;;;;4.60;4.00;;;31.50;96.90;;;;;;4976483;28;20483;-82
2022/08/30 16:05:59;;;;;;;7.80;4.77;;;31.60;96.50;;;;;;4975471;28;20469;-81
2022/08/30 16:08:27;;;;;;;5.20;3.93;;;31.60;97.10;;;;;;4977167;28;20475;-82
2022/08/30 16:10:54;;;;;;;8.07;5.20;;;31.60;96.80;;;;;;4977031;28;20503;-82
2022/08/30 16:13:22;;;;;;;5.40;4.47;;;31.70;96.80;;;;;;4978139;28;20499;-82
2022/08/30 16:15:49;;;;;;;4.43;4.03;;;31.70;96.70;;;;;;4975546;28;20467;-81
2022/08/30 16:18:16;;;;;;;5.23;4.17;;;31.70;96.80;;;;;;4976595;28;20468;-81
2022/08/30 16:20:44;;;;;;;9.67;4.70;;;31.60;96.30;;;;;;4975691;28;21031;-79
2022/08/30 16:23:11;;;;;;;4.93;4.43;;;31.50;95.40;;;;;;4975871;28;20457;-79
2022/08/30 16:25:38;;;;;;;5.20;3.90;;;31.40;95.70;;;;;;4976525;28;20460;-79
2022/08/30 16:28:06;;;;;;;7.10;4.80;;;31.20;96.00;;;;;;4975590;28;20469;-79
2022/08/30 16:30:34;;;;;;;5.23;4.70;;;31.20;96.10;;;;;;4975512;28;20508;-80
2022/08/30 16:33:01;;;;;;;4.80;4.37;;;31.10;96.80;;;;;;4975682;28;20543;-79
2022/08/30 16:35:28;;;;;;;4.40;4.00;;;31.00;96.20;;;;;;4975658;28;21017;-79
2022/08/30 16:37:55;;;;;;;8.73;4.00;;;30.90;95.30;;;;;;4976421;28;20527;-79
2022/08/30 16:40:22;;;;;;;6.73;4.37;;;30.70;95.60;;;;;;4975627;28;20461;-79
2022/08/30 16:42:49;;;;;;;5.80;4.27;;;30.60;96.20;;;;;;4976250;28;20464;-79
2022/08/30 16:45:16;;;;;;;8.73;4.67;;;30.40;96.10;;;;;;4975705;28;20953;-79
2022/08/30 16:47:44;;;;;;;5.67;4.10;;;30.30;96.00;;;;;;4976345;28;20461;-79
2022/08/30 16:50:11;;;;;;;7.93;4.10;;;30.20;95.50;;;;;;4976256;28;20453;-79
2022/08/30 16:52:38;;;;;;;5.17;4.23;;;30.10;95.80;;;;;;4975720;28;20464;-79
2022/08/30 16:55:06;;;;;;;5.10;3.80;;;30.00;95.70;;;;;;4975006;28;20460;-79
2022/08/30 16:57:33;;;;;;;6.13;4.93;;;29.80;95.20;;;;;;4975329;28;20469;-79
2022/08/30 17:00:00;;;;;;;8.50;4.27;;;29.70;95.60;;;;;;4975190;28;20461;-79
2022/08/30 17:02:27;;;;;;;6.33;4.43;;;29.60;95.00;;;;;;4975225;28;20587;-80
2022/08/30 17:04:55;;;;;;;5.47;3.90;;;29.40;96.30;;;;;;4974839;28;20463;-80
2022/08/30 17:07:24;;;;;;;4.60;4.20;;;29.30;96.50;;;;;;4976246;28;20464;-80
2022/08/30 17:09:51;;;;;;;6.70;4.70;;;29.30;96.60;;;;;;4975285;28;20969;-80